Terminal Aerodrome Forecast
Issued by NWS

Home | Current Version | Previous Version | Graphics & Text | Print | Product List | Glossary On
Versions: 1 2 3 4 5 6 7 8 9 10 11 12 13 14 15 16
652
FTUS43 KFGF 161503 AAA
TAFBJI
TAF AMD
KBJI 161503Z 1615/1712 28010KT 4SM BR OVC008
      TEMPO 1615/1618 2SM BR OVC006
     FM161800 29006KT P6SM VCSH OVC008
     FM162100 30006KT P6SM OVC010
     FM170100 29006KT P6SM OVC008
      AMD NOT SKED=

USA.gov is the U.S. government's official web portal to all federal, state and local government web resources and services.